sensor_id;sensor_type;location;lat;lon;timestamp;temperature;humidity
34646;DHT22;20857;47.808;12.482;2022-12-07T00:01:18;3.00;99.90
34646;DHT22;20857;47.808;12.482;2022-12-07T00:03:45;3.10;99.90
34646;DHT22;20857;47.808;12.482;2022-12-07T00:06:12;3.10;99.90
34646;DHT22;20857;47.808;12.482;2022-12-07T00:08:38;3.10;99.90
34646;DHT22;20857;47.808;12.482;2022-12-07T00:11:05;3.10;99.90
34646;DHT22;20857;47.808;12.482;2022-12-07T00:13:31;3.10;99.90
34646;DHT22;20857;47.808;12.482;2022-12-07T00:16:04;3.10;99.90
34646;DHT22;20857;47.808;12.482;2022-12-07T00:18:30;3.00;99.90
34646;DHT22;20857;47.808;12.482;2022-12-07T00:21:00;3.10;99.90
34646;DHT22;20857;47.808;12.482;2022-12-07T00:23:26;3.00;99.90
34646;DHT22;20857;47.808;12.482;2022-12-07T00:25:51;3.00;99.90
34646;DHT22;20857;47.808;12.482;2022-12-07T00:28:16;3.10;99.90
34646;DHT22;20857;47.808;12.482;2022-12-07T00:30:42;3.10;99.90
34646;DHT22;20857;47.808;12.482;2022-12-07T00:33:07;3.10;99.90
34646;DHT22;20857;47.808;12.482;2022-12-07T00:35:33;3.10;99.90
34646;DHT22;20857;47.808;12.482;2022-12-07T00:37:58;3.10;99.90
34646;DHT22;20857;47.808;12.482;2022-12-07T00:40:24;3.10;99.90
34646;DHT22;20857;47.808;12.482;2022-12-07T00:42:49;3.10;99.90
34646;DHT22;20857;47.808;12.482;2022-12-07T00:45:15;3.20;99.90
34646;DHT22;20857;47.808;12.482;2022-12-07T00:47:40;3.20;99.90
34646;DHT22;20857;47.808;12.482;2022-12-07T00:50:06;3.20;99.90
34646;DHT22;20857;47.808;12.482;2022-12-07T00:52:31;3.20;99.90
34646;DHT22;20857;47.808;12.482;2022-12-07T00:54:57;3.30;99.90
34646;DHT22;20857;47.808;12.482;2022-12-07T00:57:22;3.40;99.90
34646;DHT22;20857;47.808;12.482;2022-12-07T00:59:48;3.30;99.90
34646;DHT22;20857;47.808;12.482;2022-12-07T01:02:13;3.20;99.90
34646;DHT22;20857;47.808;12.482;2022-12-07T01:04:39;3.20;99.90
34646;DHT22;20857;47.808;12.482;2022-12-07T01:07:04;3.10;99.90
34646;DHT22;20857;47.808;12.482;2022-12-07T01:09:30;3.10;99.90
34646;DHT22;20857;47.808;12.482;2022-12-07T01:11:55;3.00;99.90
34646;DHT22;20857;47.808;12.482;2022-12-07T01:14:21;3.00;99.90
34646;DHT22;20857;47.808;12.482;2022-12-07T01:16:46;2.90;99.90
34646;DHT22;20857;47.808;12.482;2022-12-07T01:19:11;3.00;99.90
34646;DHT22;20857;47.808;12.482;2022-12-07T01:21:37;2.90;99.90
34646;DHT22;20857;47.808;12.482;2022-12-07T01:24:04;2.90;99.90
34646;DHT22;20857;47.808;12.482;2022-12-07T01:26:30;3.00;99.90
34646;DHT22;20857;47.808;12.482;2022-12-07T01:28:55;2.90;99.90
34646;DHT22;20857;47.808;12.482;2022-12-07T01:31:21;2.80;99.90
34646;DHT22;20857;47.808;12.482;2022-12-07T01:33:48;2.80;99.90
34646;DHT22;20857;47.808;12.482;2022-12-07T01:36:15;2.90;99.90
34646;DHT22;20857;47.808;12.482;2022-12-07T01:38:42;2.90;99.90
34646;DHT22;20857;47.808;12.482;2022-12-07T01:41:07;2.90;99.90
34646;DHT22;20857;47.808;12.482;2022-12-07T01:43:33;2.80;99.90
34646;DHT22;20857;47.808;12.482;2022-12-07T01:45:59;2.80;99.90
34646;DHT22;20857;47.808;12.482;2022-12-07T01:48:29;2.90;99.90
34646;DHT22;20857;47.808;12.482;2022-12-07T01:50:56;2.80;99.90
34646;DHT22;20857;47.808;12.482;2022-12-07T01:53:26;2.60;99.90
34646;DHT22;20857;47.808;12.482;2022-12-07T01:55:54;2.60;99.90
34646;DHT22;20857;47.808;12.482;2022-12-07T01:58:21;2.60;99.90
34646;DHT22;20857;47.808;12.482;2022-12-07T02:00:46;2.70;99.90
34646;DHT22;20857;47.808;12.482;2022-12-07T02:03:17;2.60;99.90
34646;DHT22;20857;47.808;12.482;2022-12-07T02:05:44;2.60;99.90
34646;DHT22;20857;47.808;12.482;2022-12-07T02:08:10;2.50;99.90
34646;DHT22;20857;47.808;12.482;2022-12-07T02:10:36;2.60;99.90
34646;DHT22;20857;47.808;12.482;2022-12-07T02:13:03;2.50;99.90
34646;DHT22;20857;47.808;12.482;2022-12-07T02:15:34;2.50;99.90
34646;DHT22;20857;47.808;12.482;2022-12-07T02:20:33;2.50;99.90
34646;DHT22;20857;47.808;12.482;2022-12-07T02:23:20;2.50;99.90
34646;DHT22;20857;47.808;12.482;2022-12-07T02:28:33;2.60;99.90
34646;DHT22;20857;47.808;12.482;2022-12-07T02:31:02;2.60;99.90
34646;DHT22;20857;47.808;12.482;2022-12-07T02:33:35;2.60;99.90
34646;DHT22;20857;47.808;12.482;2022-12-07T02:36:03;2.60;99.90
34646;DHT22;20857;47.808;12.482;2022-12-07T02:38:37;2.60;99.90
34646;DHT22;20857;47.808;12.482;2022-12-07T02:43:38;2.70;99.90
34646;DHT22;20857;47.808;12.482;2022-12-07T02:46:05;2.80;99.90
34646;DHT22;20857;47.808;12.482;2022-12-07T02:48:32;2.80;99.90
34646;DHT22;20857;47.808;12.482;2022-12-07T02:50:58;2.70;99.90
34646;DHT22;20857;47.808;12.482;2022-12-07T02:53:31;2.70;99.90
34646;DHT22;20857;47.808;12.482;2022-12-07T02:55:57;2.70;99.90
34646;DHT22;20857;47.808;12.482;2022-12-07T02:58:29;2.80;99.90
34646;DHT22;20857;47.808;12.482;2022-12-07T03:01:40;2.80;99.90
34646;DHT22;20857;47.808;12.482;2022-12-07T03:03:47;2.70;99.90
34646;DHT22;20857;47.808;12.482;2022-12-07T03:06:20;2.90;99.90
34646;DHT22;20857;47.808;12.482;2022-12-07T03:08:50;2.80;99.90
34646;DHT22;20857;47.808;12.482;2022-12-07T03:11:21;2.80;99.90
34646;DHT22;20857;47.808;12.482;2022-12-07T03:13:53;2.70;99.90
34646;DHT22;20857;47.808;12.482;2022-12-07T03:18:55;2.90;99.90
34646;DHT22;20857;47.808;12.482;2022-12-07T03:21:30;2.90;99.90
34646;DHT22;20857;47.808;12.482;2022-12-07T03:23:57;2.80;99.90
34646;DHT22;20857;47.808;12.482;2022-12-07T03:26:24;2.80;99.90
34646;DHT22;20857;47.808;12.482;2022-12-07T03:28:54;2.70;99.90
34646;DHT22;20857;47.808;12.482;2022-12-07T03:31:25;2.60;99.90
34646;DHT22;20857;47.808;12.482;2022-12-07T03:36:40;2.70;99.90
34646;DHT22;20857;47.808;12.482;2022-12-07T03:39:13;2.70;99.90
34646;DHT22;20857;47.808;12.482;2022-12-07T03:41:42;2.70;99.90
34646;DHT22;20857;47.808;12.482;2022-12-07T03:44:08;2.90;99.90
34646;DHT22;20857;47.808;12.482;2022-12-07T03:46:37;2.80;99.90
34646;DHT22;20857;47.808;12.482;2022-12-07T03:49:08;2.80;99.90
34646;DHT22;20857;47.808;12.482;2022-12-07T03:54:07;2.70;99.90
34646;DHT22;20857;47.808;12.482;2022-12-07T03:56:34;2.70;99.90
34646;DHT22;20857;47.808;12.482;2022-12-07T03:59:00;2.70;99.90
34646;DHT22;20857;47.808;12.482;2022-12-07T04:01:26;2.70;99.90
34646;DHT22;20857;47.808;12.482;2022-12-07T04:03:52;2.70;99.90
34646;DHT22;20857;47.808;12.482;2022-12-07T04:06:18;2.60;99.90
34646;DHT22;20857;47.808;12.482;2022-12-07T04:08:43;2.60;99.90
34646;DHT22;20857;47.808;12.482;2022-12-07T04:11:09;2.60;99.90
34646;DHT22;20857;47.808;12.482;2022-12-07T04:13:34;2.60;99.90
34646;DHT22;20857;47.808;12.482;2022-12-07T04:16:20;2.60;99.90
34646;DHT22;20857;47.808;12.482;2022-12-07T04:18:45;2.50;99.90
34646;DHT22;20857;47.808;12.482;2022-12-07T04:21:11;2.50;99.90
34646;DHT22;20857;47.808;12.482;2022-12-07T04:23:36;2.50;99.90
34646;DHT22;20857;47.808;12.482;2022-12-07T04:26:02;2.60;99.90
34646;DHT22;20857;47.808;12.482;2022-12-07T04:28:27;2.50;99.90
34646;DHT22;20857;47.808;12.482;2022-12-07T04:30:53;2.60;99.90
34646;DHT22;20857;47.808;12.482;2022-12-07T04:33:18;2.50;99.90
34646;DHT22;20857;47.808;12.482;2022-12-07T04:35:44;2.50;99.90
34646;DHT22;20857;47.808;12.482;2022-12-07T04:38:09;2.40;99.90
34646;DHT22;20857;47.808;12.482;2022-12-07T04:40:34;2.40;99.90
34646;DHT22;20857;47.808;12.482;2022-12-07T04:43:00;2.40;99.90
34646;DHT22;20857;47.808;12.482;2022-12-07T04:45:25;2.40;99.90
34646;DHT22;20857;47.808;12.482;2022-12-07T04:47:51;2.40;99.90
34646;DHT22;20857;47.808;12.482;2022-12-07T04:50:16;2.40;99.90
34646;DHT22;20857;47.808;12.482;2022-12-07T04:52:42;2.50;99.90
34646;DHT22;20857;47.808;12.482;2022-12-07T04:55:07;2.40;99.90
34646;DHT22;20857;47.808;12.482;2022-12-07T04:57:33;2.40;99.90
34646;DHT22;20857;47.808;12.482;2022-12-07T04:59:58;2.40;99.90
34646;DHT22;20857;47.808;12.482;2022-12-07T05:02:24;2.50;99.90
34646;DHT22;20857;47.808;12.482;2022-12-07T05:04:49;2.50;99.90
34646;DHT22;20857;47.808;12.482;2022-12-07T05:07:15;2.40;99.90
34646;DHT22;20857;47.808;12.482;2022-12-07T05:09:40;2.30;99.90
34646;DHT22;20857;47.808;12.482;2022-12-07T05:12:06;2.30;99.90
34646;DHT22;20857;47.808;12.482;2022-12-07T05:14:31;2.40;99.90
34646;DHT22;20857;47.808;12.482;2022-12-07T05:16:57;2.50;99.90
34646;DHT22;20857;47.808;12.482;2022-12-07T05:19:22;2.60;99.90
34646;DHT22;20857;47.808;12.482;2022-12-07T05:21:48;2.60;99.90
34646;DHT22;20857;47.808;12.482;2022-12-07T05:24:14;2.60;99.90
34646;DHT22;20857;47.808;12.482;2022-12-07T05:26:39;2.70;99.90
34646;DHT22;20857;47.808;12.482;2022-12-07T05:29:05;2.80;99.90
34646;DHT22;20857;47.808;12.482;2022-12-07T05:31:31;2.70;99.90
34646;DHT22;20857;47.808;12.482;2022-12-07T05:33:57;2.80;99.90
34646;DHT22;20857;47.808;12.482;2022-12-07T05:36:22;2.80;99.90
34646;DHT22;20857;47.808;12.482;2022-12-07T05:38:48;2.80;99.90
34646;DHT22;20857;47.808;12.482;2022-12-07T05:41:15;2.80;99.90
34646;DHT22;20857;47.808;12.482;2022-12-07T05:43:59;2.80;99.90
34646;DHT22;20857;47.808;12.482;2022-12-07T05:46:25;2.80;99.90
34646;DHT22;20857;47.808;12.482;2022-12-07T05:48:51;2.80;99.90
34646;DHT22;20857;47.808;12.482;2022-12-07T05:51:16;2.80;99.90
34646;DHT22;20857;47.808;12.482;2022-12-07T05:53:42;2.60;99.90
34646;DHT22;20857;47.808;12.482;2022-12-07T05:56:07;2.60;99.90
34646;DHT22;20857;47.808;12.482;2022-12-07T05:58:33;2.70;99.90
34646;DHT22;20857;47.808;12.482;2022-12-07T06:01:17;2.70;99.90
34646;DHT22;20857;47.808;12.482;2022-12-07T06:03:42;2.80;99.90
34646;DHT22;20857;47.808;12.482;2022-12-07T06:06:08;2.80;99.90
34646;DHT22;20857;47.808;12.482;2022-12-07T06:08:33;2.80;99.90
34646;DHT22;20857;47.808;12.482;2022-12-07T06:10:59;2.80;99.90
34646;DHT22;20857;47.808;12.482;2022-12-07T06:13:43;2.90;99.90
34646;DHT22;20857;47.808;12.482;2022-12-07T06:16:08;2.80;99.90
34646;DHT22;20857;47.808;12.482;2022-12-07T06:18:34;2.90;99.90
34646;DHT22;20857;47.808;12.482;2022-12-07T06:20:59;2.90;99.90
34646;DHT22;20857;47.808;12.482;2022-12-07T06:23:25;2.90;99.90
34646;DHT22;20857;47.808;12.482;2022-12-07T06:25:50;2.90;99.90
34646;DHT22;20857;47.808;12.482;2022-12-07T06:28:16;2.90;99.90
34646;DHT22;20857;47.808;12.482;2022-12-07T06:30:41;2.90;99.90
34646;DHT22;20857;47.808;12.482;2022-12-07T06:33:06;2.80;99.90
34646;DHT22;20857;47.808;12.482;2022-12-07T06:35:32;2.80;99.90
34646;DHT22;20857;47.808;12.482;2022-12-07T06:37:58;2.80;99.90
34646;DHT22;20857;47.808;12.482;2022-12-07T06:40:24;2.80;99.90
34646;DHT22;20857;47.808;12.482;2022-12-07T06:42:49;2.70;99.90
34646;DHT22;20857;47.808;12.482;2022-12-07T06:45:14;2.70;99.90
34646;DHT22;20857;47.808;12.482;2022-12-07T06:47:40;2.70;99.90
34646;DHT22;20857;47.808;12.482;2022-12-07T06:50:06;2.70;99.90
34646;DHT22;20857;47.808;12.482;2022-12-07T06:52:33;2.70;99.90
34646;DHT22;20857;47.808;12.482;2022-12-07T06:54:58;2.70;99.90
34646;DHT22;20857;47.808;12.482;2022-12-07T06:57:24;2.80;99.90
34646;DHT22;20857;47.808;12.482;2022-12-07T06:59:50;2.70;99.90
34646;DHT22;20857;47.808;12.482;2022-12-07T07:02:15;2.70;99.90
34646;DHT22;20857;47.808;12.482;2022-12-07T07:04:41;2.70;99.90
34646;DHT22;20857;47.808;12.482;2022-12-07T07:07:06;2.80;99.90
34646;DHT22;20857;47.808;12.482;2022-12-07T07:09:32;2.80;99.90
34646;DHT22;20857;47.808;12.482;2022-12-07T07:11:57;2.80;99.90
34646;DHT22;20857;47.808;12.482;2022-12-07T07:14:23;2.70;99.90
34646;DHT22;20857;47.808;12.482;2022-12-07T07:16:48;2.70;99.90
34646;DHT22;20857;47.808;12.482;2022-12-07T07:19:14;2.60;99.90
34646;DHT22;20857;47.808;12.482;2022-12-07T07:21:39;2.60;99.90
34646;DHT22;20857;47.808;12.482;2022-12-07T07:24:05;2.60;99.90
34646;DHT22;20857;47.808;12.482;2022-12-07T07:26:30;2.60;99.90
34646;DHT22;20857;47.808;12.482;2022-12-07T07:28:56;2.60;99.90
34646;DHT22;20857;47.808;12.482;2022-12-07T07:31:21;2.60;99.90
34646;DHT22;20857;47.808;12.482;2022-12-07T07:33:46;2.50;99.90
34646;DHT22;20857;47.808;12.482;2022-12-07T07:36:12;2.50;99.90
34646;DHT22;20857;47.808;12.482;2022-12-07T07:38:37;2.50;99.90
34646;DHT22;20857;47.808;12.482;2022-12-07T07:41:03;2.40;99.90
34646;DHT22;20857;47.808;12.482;2022-12-07T07:43:28;2.40;99.90
34646;DHT22;20857;47.808;12.482;2022-12-07T07:45:54;2.50;99.90
34646;DHT22;20857;47.808;12.482;2022-12-07T07:48:19;2.40;99.90
34646;DHT22;20857;47.808;12.482;2022-12-07T07:50:45;2.30;99.90
34646;DHT22;20857;47.808;12.482;2022-12-07T07:53:11;2.30;99.90
34646;DHT22;20857;47.808;12.482;2022-12-07T07:55:36;2.10;99.90
34646;DHT22;20857;47.808;12.482;2022-12-07T07:58:01;1.90;99.90
34646;DHT22;20857;47.808;12.482;2022-12-07T08:00:27;1.90;99.90
34646;DHT22;20857;47.808;12.482;2022-12-07T08:02:53;1.80;99.90
34646;DHT22;20857;47.808;12.482;2022-12-07T08:05:19;1.80;99.90
34646;DHT22;20857;47.808;12.482;2022-12-07T08:07:45;1.70;99.90
34646;DHT22;20857;47.808;12.482;2022-12-07T08:10:11;1.60;99.90
34646;DHT22;20857;47.808;12.482;2022-12-07T08:12:37;3.40;99.90
34646;DHT22;20857;47.808;12.482;2022-12-07T08:15:24;1.40;99.90
34646;DHT22;20857;47.808;12.482;2022-12-07T08:17:49;1.40;99.90
34646;DHT22;20857;47.808;12.482;2022-12-07T08:20:15;1.50;99.90
34646;DHT22;20857;47.808;12.482;2022-12-07T08:22:40;1.60;99.90
34646;DHT22;20857;47.808;12.482;2022-12-07T08:25:08;1.60;99.90
34646;DHT22;20857;47.808;12.482;2022-12-07T08:27:34;1.70;99.90
34646;DHT22;20857;47.808;12.482;2022-12-07T08:29:59;1.90;99.90
34646;DHT22;20857;47.808;12.482;2022-12-07T08:32:25;2.00;99.90
34646;DHT22;20857;47.808;12.482;2022-12-07T08:34:51;2.10;99.90
34646;DHT22;20857;47.808;12.482;2022-12-07T08:37:17;2.20;99.90
34646;DHT22;20857;47.808;12.482;2022-12-07T08:39:42;2.30;99.90
34646;DHT22;20857;47.808;12.482;2022-12-07T08:42:08;2.40;99.90
34646;DHT22;20857;47.808;12.482;2022-12-07T08:44:33;2.40;99.90
34646;DHT22;20857;47.808;12.482;2022-12-07T08:47:00;2.30;99.90
34646;DHT22;20857;47.808;12.482;2022-12-07T08:49:30;2.40;99.90
34646;DHT22;20857;47.808;12.482;2022-12-07T08:51:56;2.40;99.90
34646;DHT22;20857;47.808;12.482;2022-12-07T08:54:22;2.40;99.90
34646;DHT22;20857;47.808;12.482;2022-12-07T08:56:47;2.40;99.90
34646;DHT22;20857;47.808;12.482;2022-12-07T08:59:14;2.40;99.90
34646;DHT22;20857;47.808;12.482;2022-12-07T09:01:41;2.50;99.90
34646;DHT22;20857;47.808;12.482;2022-12-07T09:04:06;2.50;99.90
34646;DHT22;20857;47.808;12.482;2022-12-07T09:06:32;2.60;99.90
34646;DHT22;20857;47.808;12.482;2022-12-07T09:08:58;2.60;99.90
34646;DHT22;20857;47.808;12.482;2022-12-07T09:11:26;2.70;99.90
34646;DHT22;20857;47.808;12.482;2022-12-07T09:13:51;2.70;99.90
34646;DHT22;20857;47.808;12.482;2022-12-07T09:16:16;2.70;99.90
34646;DHT22;20857;47.808;12.482;2022-12-07T09:18:42;2.80;99.90
34646;DHT22;20857;47.808;12.482;2022-12-07T09:21:07;2.90;99.90
34646;DHT22;20857;47.808;12.482;2022-12-07T09:23:33;3.00;99.90
34646;DHT22;20857;47.808;12.482;2022-12-07T09:26:02;2.90;99.90
34646;DHT22;20857;47.808;12.482;2022-12-07T09:28:28;3.00;99.90
34646;DHT22;20857;47.808;12.482;2022-12-07T09:30:53;3.00;99.90
34646;DHT22;20857;47.808;12.482;2022-12-07T09:33:19;2.90;99.90
34646;DHT22;20857;47.808;12.482;2022-12-07T09:35:45;3.00;99.90
34646;DHT22;20857;47.808;12.482;2022-12-07T09:38:11;3.10;99.90
34646;DHT22;20857;47.808;12.482;2022-12-07T09:40:36;3.10;99.90
34646;DHT22;20857;47.808;12.482;2022-12-07T09:43:02;3.10;99.90
34646;DHT22;20857;47.808;12.482;2022-12-07T09:45:30;3.20;99.90
34646;DHT22;20857;47.808;12.482;2022-12-07T09:47:58;3.20;99.90
34646;DHT22;20857;47.808;12.482;2022-12-07T09:50:24;3.10;99.90
34646;DHT22;20857;47.808;12.482;2022-12-07T09:52:50;3.10;99.90
34646;DHT22;20857;47.808;12.482;2022-12-07T09:55:24;3.20;99.90
34646;DHT22;20857;47.808;12.482;2022-12-07T09:57:50;3.20;99.90
34646;DHT22;20857;47.808;12.482;2022-12-07T10:00:18;3.30;99.90
34646;DHT22;20857;47.808;12.482;2022-12-07T10:02:47;3.40;99.90
34646;DHT22;20857;47.808;12.482;2022-12-07T10:05:18;3.40;99.90
34646;DHT22;20857;47.808;12.482;2022-12-07T10:07:44;3.60;99.90
34646;DHT22;20857;47.808;12.482;2022-12-07T10:10:13;3.60;99.90
34646;DHT22;20857;47.808;12.482;2022-12-07T10:13:02;3.70;99.90
34646;DHT22;20857;47.808;12.482;2022-12-07T10:20:42;3.80;99.90
34646;DHT22;20857;47.808;12.482;2022-12-07T10:23:16;3.80;99.90
34646;DHT22;20857;47.808;12.482;2022-12-07T10:25:42;3.90;99.90
34646;DHT22;20857;47.808;12.482;2022-12-07T10:30:34;3.80;99.90
34646;DHT22;20857;47.808;12.482;2022-12-07T10:35:54;3.80;99.90
34646;DHT22;20857;47.808;12.482;2022-12-07T10:38:20;3.60;99.90
34646;DHT22;20857;47.808;12.482;2022-12-07T10:40:45;3.60;99.90
34646;DHT22;20857;47.808;12.482;2022-12-07T10:45:41;3.50;99.90
34646;DHT22;20857;47.808;12.482;2022-12-07T10:48:21;3.30;99.90
34646;DHT22;20857;47.808;12.482;2022-12-07T10:51:02;3.50;99.90
34646;DHT22;20857;47.808;12.482;2022-12-07T10:53:42;3.50;99.90
34646;DHT22;20857;47.808;12.482;2022-12-07T10:58:58;3.50;99.90
34646;DHT22;20857;47.808;12.482;2022-12-07T11:01:36;3.50;99.90
34646;DHT22;20857;47.808;12.482;2022-12-07T11:04:22;3.50;99.90
34646;DHT22;20857;47.808;12.482;2022-12-07T11:22:29;3.80;99.90
34646;DHT22;20857;47.808;12.482;2022-12-07T11:30:17;4.00;99.90
34646;DHT22;20857;47.808;12.482;2022-12-07T11:35:19;4.10;99.90
34646;DHT22;20857;47.808;12.482;2022-12-07T11:37:47;4.20;99.90
34646;DHT22;20857;47.808;12.482;2022-12-07T11:42:41;4.30;99.90
34646;DHT22;20857;47.808;12.482;2022-12-07T11:55:05;4.00;99.90
34646;DHT22;20857;47.808;12.482;2022-12-07T11:57:33;4.00;99.90
34646;DHT22;20857;47.808;12.482;2022-12-07T12:00:04;4.10;99.90
34646;DHT22;20857;47.808;12.482;2022-12-07T12:02:35;4.30;99.90
34646;DHT22;20857;47.808;12.482;2022-12-07T12:05:07;4.40;99.90
34646;DHT22;20857;47.808;12.482;2022-12-07T12:07:37;4.50;99.90
34646;DHT22;20857;47.808;12.482;2022-12-07T12:10:14;4.50;99.90
34646;DHT22;20857;47.808;12.482;2022-12-07T12:15:35;4.60;99.90
34646;DHT22;20857;47.808;12.482;2022-12-07T12:23:13;4.60;99.90
34646;DHT22;20857;47.808;12.482;2022-12-07T12:25:43;4.70;99.90
34646;DHT22;20857;47.808;12.482;2022-12-07T12:28:18;4.70;99.90
34646;DHT22;20857;47.808;12.482;2022-12-07T12:30:45;4.70;99.90
34646;DHT22;20857;47.808;12.482;2022-12-07T12:35:39;4.60;99.90
34646;DHT22;20857;47.808;12.482;2022-12-07T12:40:45;4.60;99.90
34646;DHT22;20857;47.808;12.482;2022-12-07T12:43:56;4.60;99.90
34646;DHT22;20857;47.808;12.482;2022-12-07T12:46:35;4.70;99.90
34646;DHT22;20857;47.808;12.482;2022-12-07T12:48:52;4.70;99.90
34646;DHT22;20857;47.808;12.482;2022-12-07T12:51:37;4.70;99.90
34646;DHT22;20857;47.808;12.482;2022-12-07T12:54:04;4.70;99.90
34646;DHT22;20857;47.808;12.482;2022-12-07T12:56:39;4.90;99.90
34646;DHT22;20857;47.808;12.482;2022-12-07T12:59:22;4.90;99.90
34646;DHT22;20857;47.808;12.482;2022-12-07T13:01:48;4.90;99.90
34646;DHT22;20857;47.808;12.482;2022-12-07T13:04:36;4.90;99.90
34646;DHT22;20857;47.808;12.482;2022-12-07T13:07:03;4.90;99.90
34646;DHT22;20857;47.808;12.482;2022-12-07T13:09:29;4.90;99.90
34646;DHT22;20857;47.808;12.482;2022-12-07T13:12:01;4.90;99.90
34646;DHT22;20857;47.808;12.482;2022-12-07T13:15:19;4.80;99.90
34646;DHT22;20857;47.808;12.482;2022-12-07T13:19:57;4.80;99.90
34646;DHT22;20857;47.808;12.482;2022-12-07T13:24:59;4.70;99.90
34646;DHT22;20857;47.808;12.482;2022-12-07T13:27:27;4.70;99.90
34646;DHT22;20857;47.808;12.482;2022-12-07T13:29:53;5.10;99.90
34646;DHT22;20857;47.808;12.482;2022-12-07T13:32:27;4.70;99.90
34646;DHT22;20857;47.808;12.482;2022-12-07T13:34:54;4.70;99.90
34646;DHT22;20857;47.808;12.482;2022-12-07T13:37:25;4.60;99.90
34646;DHT22;20857;47.808;12.482;2022-12-07T13:39:53;4.60;99.90
34646;DHT22;20857;47.808;12.482;2022-12-07T13:42:22;4.60;99.90
34646;DHT22;20857;47.808;12.482;2022-12-07T13:44:49;4.60;99.90
34646;DHT22;20857;47.808;12.482;2022-12-07T13:49:56;4.60;99.90
34646;DHT22;20857;47.808;12.482;2022-12-07T13:52:26;4.50;99.90
34646;DHT22;20857;47.808;12.482;2022-12-07T13:57:26;4.50;99.90
34646;DHT22;20857;47.808;12.482;2022-12-07T13:59:52;4.40;99.90
34646;DHT22;20857;47.808;12.482;2022-12-07T14:04:43;4.40;99.90
34646;DHT22;20857;47.808;12.482;2022-12-07T14:10:04;4.20;99.90
34646;DHT22;20857;47.808;12.482;2022-12-07T14:12:31;4.20;99.90
34646;DHT22;20857;47.808;12.482;2022-12-07T14:14:57;4.20;99.90
34646;DHT22;20857;47.808;12.482;2022-12-07T14:17:24;4.10;99.90
34646;DHT22;20857;47.808;12.482;2022-12-07T14:22:26;4.10;99.90
34646;DHT22;20857;47.808;12.482;2022-12-07T14:27:30;4.00;99.90
34646;DHT22;20857;47.808;12.482;2022-12-07T14:29:59;4.00;99.90
34646;DHT22;20857;47.808;12.482;2022-12-07T14:32:26;4.00;99.90
34646;DHT22;20857;47.808;12.482;2022-12-07T14:34:55;3.90;99.90
34646;DHT22;20857;47.808;12.482;2022-12-07T14:37:21;3.80;99.90
34646;DHT22;20857;47.808;12.482;2022-12-07T14:39:46;3.80;99.90
34646;DHT22;20857;47.808;12.482;2022-12-07T14:42:12;3.80;99.90
34646;DHT22;20857;47.808;12.482;2022-12-07T14:44:37;3.70;99.90
34646;DHT22;20857;47.808;12.482;2022-12-07T14:47:03;3.70;99.90
34646;DHT22;20857;47.808;12.482;2022-12-07T14:49:28;3.70;99.90
34646;DHT22;20857;47.808;12.482;2022-12-07T14:51:54;3.70;99.90
34646;DHT22;20857;47.808;12.482;2022-12-07T14:54:19;4.00;99.90
34646;DHT22;20857;47.808;12.482;2022-12-07T14:56:46;3.80;99.90
34646;DHT22;20857;47.808;12.482;2022-12-07T14:59:17;3.70;99.90
34646;DHT22;20857;47.808;12.482;2022-12-07T15:01:44;3.70;99.90
34646;DHT22;20857;47.808;12.482;2022-12-07T15:04:09;3.70;99.90
34646;DHT22;20857;47.808;12.482;2022-12-07T15:06:35;3.60;99.90
34646;DHT22;20857;47.808;12.482;2022-12-07T15:09:00;3.50;99.90
34646;DHT22;20857;47.808;12.482;2022-12-07T15:11:26;3.50;99.90
34646;DHT22;20857;47.808;12.482;2022-12-07T15:13:51;3.70;99.90
34646;DHT22;20857;47.808;12.482;2022-12-07T15:16:38;3.50;99.90
34646;DHT22;20857;47.808;12.482;2022-12-07T15:19:05;3.50;99.90
34646;DHT22;20857;47.808;12.482;2022-12-07T15:21:31;3.40;99.90
34646;DHT22;20857;47.808;12.482;2022-12-07T15:23:56;3.40;99.90
34646;DHT22;20857;47.808;12.482;2022-12-07T15:26:22;3.30;99.90
34646;DHT22;20857;47.808;12.482;2022-12-07T15:28:47;3.20;99.90
34646;DHT22;20857;47.808;12.482;2022-12-07T15:31:13;3.20;99.90
34646;DHT22;20857;47.808;12.482;2022-12-07T15:33:39;3.20;99.90
34646;DHT22;20857;47.808;12.482;2022-12-07T15:36:05;3.30;99.90
34646;DHT22;20857;47.808;12.482;2022-12-07T15:38:30;3.30;99.90
34646;DHT22;20857;47.808;12.482;2022-12-07T15:40:56;3.30;99.90
34646;DHT22;20857;47.808;12.482;2022-12-07T15:43:21;3.30;99.90
34646;DHT22;20857;47.808;12.482;2022-12-07T15:46:06;3.30;99.90
34646;DHT22;20857;47.808;12.482;2022-12-07T15:48:31;3.30;99.90
34646;DHT22;20857;47.808;12.482;2022-12-07T15:51:03;3.30;99.90
34646;DHT22;20857;47.808;12.482;2022-12-07T15:53:29;3.20;99.90
34646;DHT22;20857;47.808;12.482;2022-12-07T15:55:54;3.10;99.90
34646;DHT22;20857;47.808;12.482;2022-12-07T15:58:20;3.10;99.90
34646;DHT22;20857;47.808;12.482;2022-12-07T16:00:45;3.10;99.90
34646;DHT22;20857;47.808;12.482;2022-12-07T16:03:12;3.10;99.90
34646;DHT22;20857;47.808;12.482;2022-12-07T16:05:37;3.20;99.90
34646;DHT22;20857;47.808;12.482;2022-12-07T16:08:03;3.20;99.90
34646;DHT22;20857;47.808;12.482;2022-12-07T16:10:28;3.20;99.90
34646;DHT22;20857;47.808;12.482;2022-12-07T16:12:54;3.10;99.90
34646;DHT22;20857;47.808;12.482;2022-12-07T16:15:19;3.10;99.90
34646;DHT22;20857;47.808;12.482;2022-12-07T16:17:45;3.00;99.90
34646;DHT22;20857;47.808;12.482;2022-12-07T16:20:10;3.10;99.90
34646;DHT22;20857;47.808;12.482;2022-12-07T16:22:36;3.00;99.90
34646;DHT22;20857;47.808;12.482;2022-12-07T16:25:01;3.00;99.90
34646;DHT22;20857;47.808;12.482;2022-12-07T16:27:27;3.00;99.90
34646;DHT22;20857;47.808;12.482;2022-12-07T16:29:52;3.00;99.90
34646;DHT22;20857;47.808;12.482;2022-12-07T16:32:18;3.00;99.90
34646;DHT22;20857;47.808;12.482;2022-12-07T16:34:43;3.00;99.90
34646;DHT22;20857;47.808;12.482;2022-12-07T16:37:09;3.00;99.90
34646;DHT22;20857;47.808;12.482;2022-12-07T16:39:34;2.90;99.90
34646;DHT22;20857;47.808;12.482;2022-12-07T16:41:59;3.00;99.90
34646;DHT22;20857;47.808;12.482;2022-12-07T16:44:25;3.00;99.90
34646;DHT22;20857;47.808;12.482;2022-12-07T16:46:51;3.00;99.90
34646;DHT22;20857;47.808;12.482;2022-12-07T16:49:16;3.00;99.90
34646;DHT22;20857;47.808;12.482;2022-12-07T16:51:42;3.10;99.90
34646;DHT22;20857;47.808;12.482;2022-12-07T16:54:11;3.10;99.90
34646;DHT22;20857;47.808;12.482;2022-12-07T16:56:37;3.00;99.90
34646;DHT22;20857;47.808;12.482;2022-12-07T16:59:03;4.90;99.90
34646;DHT22;20857;47.808;12.482;2022-12-07T17:01:28;3.00;99.90
34646;DHT22;20857;47.808;12.482;2022-12-07T17:03:54;3.00;99.90
34646;DHT22;20857;47.808;12.482;2022-12-07T17:06:22;2.90;99.90
34646;DHT22;20857;47.808;12.482;2022-12-07T17:08:47;2.90;99.90
34646;DHT22;20857;47.808;12.482;2022-12-07T17:11:14;2.90;99.90
34646;DHT22;20857;47.808;12.482;2022-12-07T17:13:40;2.80;99.90